createdAt,value
2017-12-21T00:02:17.303Z,101987.06
2017-12-21T00:04:46.495Z,101996.84
2017-12-21T00:07:15.778Z,101996.58
2017-12-21T00:09:44.965Z,101996.17
2017-12-21T00:12:14.188Z,102003.89
2017-12-21T00:14:43.440Z,102002.27
2017-12-21T00:17:13.570Z,102007.17
2017-12-21T00:19:42.766Z,102001.51
2017-12-21T00:22:12.736Z,101993.78
2017-12-21T00:24:41.914Z,101994.73
2017-12-21T00:27:11.143Z,101997.03
2017-12-21T00:29:40.347Z,102004.48
2017-12-21T00:32:09.552Z,102013.81
2017-12-21T00:34:39.522Z,102015.58
2017-12-21T00:37:08.744Z,102015.03
2017-12-21T00:39:37.956Z,102013.00
2017-12-21T00:42:07.178Z,102011.64
2017-12-21T00:44:36.366Z,102007.98
2017-12-21T00:47:06.338Z,102011.95
2017-12-21T00:49:35.567Z,102014.66
2017-12-21T00:52:05.558Z,102010.86
2017-12-21T00:54:34.759Z,102009.91
2017-12-21T00:57:03.964Z,102003.11
2017-12-21T00:59:33.328Z,102007.04
2017-12-21T01:02:02.570Z,101997.11
2017-12-21T01:04:32.570Z,101991.31
2017-12-21T01:07:01.838Z,101997.93
2017-12-21T01:09:31.015Z,101994.84
2017-12-21T01:12:00.284Z,101985.73
2017-12-21T01:14:30.247Z,101992.61
2017-12-21T01:16:59.500Z,101998.58
2017-12-21T01:19:29.519Z,101996.27
2017-12-21T01:21:59.527Z,101993.16
2017-12-21T01:24:28.740Z,101989.80
2017-12-21T01:26:58.731Z,101990.06
2017-12-21T01:29:27.919Z,101988.84
2017-12-21T01:31:57.135Z,101989.25
2017-12-21T01:34:26.371Z,101984.24
2017-12-21T01:36:55.719Z,101991.97
2017-12-21T01:39:24.923Z,101991.02
2017-12-21T01:41:54.098Z,101988.98
2017-12-21T01:44:23.302Z,101978.55
2017-12-21T01:46:52.515Z,101978.28
2017-12-21T01:49:21.722Z,101979.09
2017-12-21T01:51:51.738Z,101977.47
2017-12-21T01:54:20.942Z,101977.98
2017-12-21T01:56:50.904Z,101974.86
2017-12-21T01:59:20.121Z,101979.77
2017-12-21T02:01:49.379Z,101983.97
2017-12-21T02:04:18.617Z,101976.66
2017-12-21T02:06:47.837Z,101980.31
2017-12-21T02:09:17.829Z,101983.94
2017-12-21T02:11:47.122Z,101975.95
2017-12-21T02:14:16.360Z,101968.36
2017-12-21T02:16:46.326Z,101974.05
2017-12-21T02:19:15.518Z,101965.78
2017-12-21T02:21:45.435Z,101963.34
2017-12-21T02:24:14.651Z,101970.80
2017-12-21T02:26:43.899Z,101972.30
2017-12-21T02:29:14.786Z,101974.16
2017-12-21T02:31:44.050Z,101971.86
2017-12-21T02:34:13.274Z,101968.33
2017-12-21T02:36:42.474Z,101969.28
2017-12-21T02:39:11.772Z,101963.86
2017-12-21T02:41:41.240Z,101971.45
2017-12-21T02:44:10.435Z,101955.87
2017-12-21T02:46:39.608Z,101958.84
2017-12-21T02:49:08.875Z,101956.41
2017-12-21T02:51:38.067Z,101962.37
2017-12-21T02:54:07.299Z,101973.21
2017-12-21T02:56:37.316Z,101973.08
2017-12-21T02:59:06.501Z,101982.83
2017-12-21T03:01:35.852Z,101981.20
2017-12-21T03:04:05.123Z,101983.10
2017-12-21T03:06:35.098Z,101981.17
2017-12-21T03:09:04.269Z,101981.17
2017-12-21T03:11:33.509Z,101981.72
2017-12-21T03:14:02.695Z,101980.91
2017-12-21T03:16:31.955Z,101982.80
2017-12-21T03:19:01.171Z,101982.02
2017-12-21T03:21:30.374Z,101976.70
2017-12-21T03:23:59.671Z,101969.49
2017-12-21T03:26:28.863Z,101961.39
2017-12-21T03:28:58.088Z,101968.74
2017-12-21T03:31:27.302Z,101962.10
2017-12-21T03:33:57.282Z,101968.47
2017-12-21T03:36:26.458Z,101956.55
2017-12-21T03:38:55.663Z,101955.09
2017-12-21T03:41:24.850Z,101952.91
2017-12-21T03:43:54.078Z,101948.44
2017-12-21T03:46:23.328Z,101941.80
2017-12-21T03:48:52.549Z,101943.16
2017-12-21T03:51:22.574Z,101941.27
2017-12-21T03:53:51.776Z,101941.91
2017-12-21T03:56:21.012Z,101942.70
2017-12-21T03:58:50.204Z,101938.25
2017-12-21T04:01:19.410Z,101941.23
2017-12-21T04:03:48.614Z,101938.13
2017-12-21T04:06:18.692Z,101934.46
2017-12-21T04:08:47.873Z,101934.05
2017-12-21T04:11:17.085Z,101926.20
2017-12-21T04:13:46.290Z,101924.52
2017-12-21T04:16:15.552Z,101922.25
2017-12-21T04:18:44.753Z,101923.47
2017-12-21T04:21:13.940Z,101913.58
2017-12-21T04:23:43.235Z,101916.15
2017-12-21T04:26:12.426Z,101916.28
2017-12-21T04:28:42.382Z,101911.00
2017-12-21T04:31:11.570Z,101915.91
2017-12-21T04:33:40.772Z,101920.51
2017-12-21T04:36:09.966Z,101917.25
2017-12-21T04:38:39.181Z,101920.37
2017-12-21T04:41:08.358Z,101925.92
2017-12-21T04:43:37.619Z,101920.23
2017-12-21T04:46:07.582Z,101921.31
2017-12-21T04:48:36.789Z,101919.42
2017-12-21T04:51:06.003Z,101920.64
2017-12-21T04:53:35.202Z,101923.48
2017-12-21T04:56:04.410Z,101925.66
2017-12-21T04:58:33.654Z,101926.58
2017-12-21T05:01:02.844Z,101925.36
2017-12-21T05:03:32.058Z,101926.03
2017-12-21T05:06:01.267Z,101920.34
2017-12-21T05:08:30.462Z,101928.72
2017-12-21T05:10:59.681Z,101927.91
2017-12-21T05:13:28.872Z,101934.81
2017-12-21T05:15:58.071Z,101939.02
2017-12-21T05:18:27.320Z,101938.20
2017-12-21T05:20:57.263Z,101942.13
2017-12-21T05:23:26.471Z,101944.59
2017-12-21T05:25:55.674Z,101942.40
2017-12-21T05:28:24.906Z,101939.86
2017-12-21T05:30:54.867Z,101937.02
2017-12-21T05:33:24.066Z,101940.27
2017-12-21T05:35:53.262Z,101941.48
2017-12-21T05:38:22.538Z,101944.87
2017-12-21T05:40:51.763Z,101945.44
2017-12-21T05:43:21.044Z,101939.45
2017-12-21T05:45:50.243Z,101935.79
2017-12-21T05:48:19.453Z,101927.52
2017-12-21T05:50:48.676Z,101925.77
2017-12-21T05:53:17.900Z,101932.97
2017-12-21T05:55:47.935Z,101936.09
2017-12-21T05:58:17.127Z,101929.53
2017-12-21T06:00:50.219Z,101923.17
2017-12-21T06:03:19.453Z,101928.72
2017-12-21T06:05:48.643Z,101928.86
2017-12-21T06:08:17.884Z,101933.19
2017-12-21T06:10:47.091Z,101934.00
2017-12-21T06:13:17.050Z,101935.11
2017-12-21T06:15:46.266Z,101940.37
2017-12-21T06:18:16.084Z,101938.85
2017-12-21T06:20:45.324Z,101941.42
2017-12-21T06:23:15.288Z,101939.25
2017-12-21T06:25:44.500Z,101944.00
2017-12-21T06:28:13.730Z,101938.72
2017-12-21T06:30:42.956Z,101938.72
2017-12-21T06:33:12.203Z,101939.39
2017-12-21T06:35:41.390Z,101936.44
2017-12-21T06:38:10.600Z,101933.33
2017-12-21T06:40:40.587Z,101932.64
2017-12-21T06:43:09.867Z,101933.89
2017-12-21T06:45:39.038Z,101936.17
2017-12-21T06:48:08.279Z,101940.23
2017-12-21T06:50:37.550Z,101938.45
2017-12-21T06:53:06.771Z,101938.30
2017-12-21T06:55:36.040Z,101936.58
2017-12-21T06:58:05.231Z,101940.10
2017-12-21T07:00:34.466Z,101941.72
2017-12-21T07:03:03.655Z,101943.75
2017-12-21T07:05:32.855Z,101946.63
2017-12-21T07:08:02.073Z,101947.84
2017-12-21T07:10:31.296Z,101945.38
2017-12-21T07:13:00.469Z,101946.06
2017-12-21T07:15:29.805Z,101948.73
2017-12-21T07:17:59.893Z,101938.30
2017-12-21T07:20:29.095Z,101946.16
2017-12-21T07:22:58.359Z,101945.35
2017-12-21T07:25:27.578Z,101947.14
2017-12-21T07:27:56.791Z,101950.53
2017-12-21T07:30:26.774Z,101946.62
2017-12-21T07:32:56.011Z,101954.22
2017-12-21T07:35:25.246Z,101959.77
2017-12-21T07:37:54.446Z,101953.95
2017-12-21T07:40:23.663Z,101959.77
2017-12-21T07:42:52.887Z,101959.91
2017-12-21T07:45:22.153Z,101964.24
2017-12-21T07:47:51.363Z,101960.17
2017-12-21T07:50:20.567Z,101961.42
2017-12-21T07:52:49.786Z,101968.20
2017-12-21T07:55:19.002Z,101966.03
2017-12-21T07:57:48.218Z,101973.34
2017-12-21T08:00:17.428Z,101975.52
2017-12-21T08:02:46.631Z,101978.06
2017-12-21T08:05:15.851Z,101973.86
2017-12-21T08:07:45.067Z,101978.73
2017-12-21T08:10:14.315Z,101980.50
2017-12-21T08:12:43.553Z,101978.47
2017-12-21T08:15:12.759Z,101981.17
2017-12-21T08:17:41.952Z,101980.50
2017-12-21T08:20:11.167Z,101986.36
2017-12-21T08:22:40.393Z,101989.20
2017-12-21T08:25:09.577Z,101979.85
2017-12-21T08:27:39.559Z,101981.88
2017-12-21T08:30:08.799Z,101976.59
2017-12-21T08:32:38.003Z,101974.97
2017-12-21T08:35:07.206Z,101974.97
2017-12-21T08:37:36.414Z,101979.82
2017-12-21T08:40:05.641Z,101968.73
2017-12-21T08:42:34.817Z,101959.55
2017-12-21T08:45:04.029Z,101963.78
2017-12-21T08:47:33.242Z,101956.70
2017-12-21T08:50:02.457Z,101958.20
2017-12-21T08:52:32.457Z,101963.48
2017-12-21T08:55:01.643Z,101963.48
2017-12-21T08:57:30.862Z,101965.92
2017-12-21T09:00:00.830Z,101965.78
2017-12-21T09:02:30.120Z,101960.52
2017-12-21T09:05:01.207Z,101970.41
2017-12-21T09:07:30.465Z,101977.77
2017-12-21T09:09:59.683Z,101971.37
2017-12-21T09:12:28.889Z,101980.02
2017-12-21T09:14:58.124Z,101971.47
2017-12-21T09:17:28.112Z,101980.31
2017-12-21T09:19:57.294Z,101977.33
2017-12-21T09:22:26.490Z,101976.81
2017-12-21T09:24:55.697Z,101981.55
2017-12-21T09:27:24.910Z,101981.55
2017-12-21T09:29:54.116Z,101980.34
2017-12-21T09:32:23.301Z,101981.17
2017-12-21T09:34:52.510Z,101978.16
2017-12-21T09:37:22.480Z,101983.88
2017-12-21T09:39:51.678Z,101977.22
2017-12-21T09:42:20.871Z,101981.85
2017-12-21T09:44:50.107Z,101987.81
2017-12-21T09:47:19.295Z,101988.63
2017-12-21T09:49:48.526Z,101988.09
2017-12-21T09:52:18.482Z,101983.34
2017-12-21T09:54:48.499Z,101988.49
2017-12-21T09:57:17.790Z,101992.67
2017-12-21T09:59:47.016Z,101997.69
2017-12-21T10:02:16.244Z,101994.16
2017-12-21T10:04:46.235Z,101996.19
2017-12-21T10:07:15.463Z,101989.84
2017-12-21T10:09:45.437Z,101988.88
2017-12-21T10:12:14.656Z,101987.95
2017-12-21T10:14:43.858Z,101978.73
2017-12-21T10:17:13.846Z,101978.87
2017-12-21T10:19:43.056Z,101976.81
2017-12-21T10:22:12.282Z,101976.81
2017-12-21T10:24:42.224Z,101967.62
2017-12-21T10:27:11.571Z,101969.52
2017-12-21T10:29:40.820Z,101970.87
2017-12-21T10:32:10.039Z,101965.83
2017-12-21T10:34:39.278Z,101950.92
2017-12-21T10:37:08.482Z,101961.91
2017-12-21T10:39:38.582Z,101966.52
2017-12-21T10:42:07.783Z,101967.19
2017-12-21T10:44:36.991Z,101950.41
2017-12-21T10:47:06.962Z,101949.06
2017-12-21T10:49:36.311Z,101947.84
2017-12-21T10:52:06.290Z,101948.25
2017-12-21T10:54:35.598Z,101950.81
2017-12-21T10:57:04.785Z,101953.26
2017-12-21T10:59:34.123Z,101950.41
2017-12-21T11:02:04.146Z,101946.75
2017-12-21T11:04:34.136Z,101948.67
2017-12-21T11:07:03.333Z,101951.41
2017-12-21T11:09:32.558Z,101951.81
2017-12-21T11:12:02.504Z,101954.10
2017-12-21T11:14:31.724Z,101960.23
2017-12-21T11:17:00.938Z,101956.96
2017-12-21T11:19:30.130Z,101956.28
2017-12-21T11:21:59.321Z,101953.44
2017-12-21T11:24:28.494Z,101951.67
2017-12-21T11:26:57.731Z,101956.02
2017-12-21T11:29:26.915Z,101949.39
2017-12-21T11:31:56.142Z,101951.14
2017-12-21T11:34:26.147Z,101945.45
2017-12-21T11:36:55.380Z,101945.84
2017-12-21T11:39:24.635Z,101941.12
2017-12-21T11:41:53.834Z,101952.51
2017-12-21T11:44:23.028Z,101943.55
2017-12-21T11:46:52.283Z,101943.69
2017-12-21T11:49:21.477Z,101942.34
2017-12-21T11:51:50.669Z,101938.26
2017-12-21T11:54:19.907Z,101944.50
2017-12-21T11:56:49.099Z,101941.39
2017-12-21T11:59:18.371Z,101937.45
2017-12-21T12:01:47.551Z,101945.18
2017-12-21T12:04:16.766Z,101947.23
2017-12-21T12:06:45.955Z,101946.02
2017-12-21T12:09:15.163Z,101943.14
2017-12-21T12:11:44.361Z,101931.87
2017-12-21T12:14:13.566Z,101931.50
2017-12-21T12:16:42.791Z,101929.87
2017-12-21T12:19:12.039Z,101929.71
2017-12-21T12:21:43.020Z,101924.02
2017-12-21T12:24:13.175Z,101928.11
2017-12-21T12:26:42.458Z,101924.17
2017-12-21T12:29:11.661Z,101926.75
2017-12-21T12:31:40.853Z,101924.84
2017-12-21T12:34:10.290Z,101917.37
2017-12-21T12:36:40.297Z,101924.44
2017-12-21T12:39:09.519Z,101928.77
2017-12-21T12:41:38.733Z,101921.18
2017-12-21T12:44:07.939Z,101920.36
2017-12-21T12:46:37.143Z,101916.16
2017-12-21T12:49:06.341Z,101918.74
2017-12-21T12:51:35.553Z,101917.09
2017-12-21T12:54:05.718Z,101916.02
2017-12-21T12:56:34.928Z,101907.89
2017-12-21T12:59:04.948Z,101902.86
2017-12-21T13:01:34.171Z,101899.61
2017-12-21T13:04:03.355Z,101898.50
2017-12-21T13:06:32.543Z,101905.67
2017-12-21T13:09:01.838Z,101899.72
2017-12-21T13:11:31.030Z,101905.53
2017-12-21T13:14:00.233Z,101904.74
2017-12-21T13:16:29.531Z,101904.74
2017-12-21T13:18:59.479Z,101897.67
2017-12-21T13:21:28.697Z,101895.10
2017-12-21T13:23:58.674Z,101891.42
2017-12-21T13:26:27.867Z,101894.13
2017-12-21T13:28:57.102Z,101892.51
2017-12-21T13:31:26.312Z,101900.94
2017-12-21T13:33:56.464Z,101904.07
2017-12-21T13:36:25.675Z,101904.59
2017-12-21T13:38:54.885Z,101906.89
2017-12-21T13:41:24.146Z,101896.31
2017-12-21T13:43:53.351Z,101901.47
2017-12-21T13:46:22.635Z,101902.71
2017-12-21T13:48:51.827Z,101903.38
2017-12-21T13:51:21.056Z,101907.03
2017-12-21T13:53:50.317Z,101894.96
2017-12-21T13:56:20.347Z,101893.46
2017-12-21T13:58:49.588Z,101897.80
2017-12-21T14:01:18.800Z,101891.72
2017-12-21T14:03:47.993Z,101889.25
2017-12-21T14:06:17.203Z,101893.73
2017-12-21T14:08:47.204Z,101890.06
2017-12-21T14:11:16.391Z,101886.94
2017-12-21T14:13:45.630Z,101884.38
2017-12-21T14:16:15.606Z,101882.74
2017-12-21T14:18:44.831Z,101892.91
2017-12-21T14:21:14.064Z,101897.95
2017-12-21T14:23:43.325Z,101908.13
2017-12-21T14:26:12.547Z,101907.98
2017-12-21T14:28:41.762Z,101918.30
2017-12-21T14:31:11.191Z,101916.39
2017-12-21T14:33:40.430Z,101926.44
2017-12-21T14:36:10.445Z,101929.70
2017-12-21T14:38:39.635Z,101928.61
2017-12-21T14:41:09.624Z,101924.96
2017-12-21T14:43:38.856Z,101923.45
2017-12-21T14:46:08.851Z,101920.48
2017-12-21T14:48:38.064Z,101914.37
2017-12-21T14:51:07.296Z,101913.13
2017-12-21T14:53:37.255Z,101911.37
2017-12-21T14:56:06.536Z,101927.23
2017-12-21T14:58:35.766Z,101921.98
2017-12-21T15:01:04.980Z,101921.16
2017-12-21T15:03:34.947Z,101926.04
2017-12-21T15:06:04.173Z,101922.11
2017-12-21T15:08:33.391Z,101925.90
2017-12-21T15:11:03.343Z,101921.56
2017-12-21T15:13:32.554Z,101926.72
2017-12-21T15:16:01.752Z,101927.13
2017-12-21T15:18:30.967Z,101928.22
2017-12-21T15:21:00.181Z,101941.89
2017-12-21T15:23:29.400Z,101944.94
2017-12-21T15:25:59.371Z,101943.30
2017-12-21T15:28:28.829Z,101944.66
2017-12-21T15:30:58.036Z,101944.80
2017-12-21T15:33:27.259Z,101942.98
2017-12-21T15:35:56.471Z,101948.16
2017-12-21T15:38:25.705Z,101947.35
2017-12-21T15:40:55.732Z,101945.03
2017-12-21T15:43:24.959Z,101945.45
2017-12-21T15:45:54.204Z,101949.81
2017-12-21T15:48:24.185Z,101953.86
2017-12-21T15:50:53.438Z,101955.63
2017-12-21T15:53:23.410Z,101957.12
2017-12-21T15:55:52.713Z,101959.84
2017-12-21T15:58:21.920Z,101965.27
2017-12-21T16:00:51.151Z,101969.61
2017-12-21T16:03:21.124Z,101965.02
2017-12-21T16:05:50.410Z,101966.22
2017-12-21T16:08:19.591Z,101973.27
2017-12-21T16:10:48.770Z,101979.66
2017-12-21T16:13:17.959Z,101986.84
2017-12-21T16:15:47.173Z,101989.02
2017-12-21T16:18:16.464Z,101993.77
2017-12-21T16:20:45.740Z,101996.89
2017-12-21T16:23:15.746Z,101995.00
2017-12-21T16:25:44.979Z,101998.92
2017-12-21T16:28:14.221Z,102003.80
2017-12-21T16:30:44.174Z,102000.29
2017-12-21T16:33:14.208Z,102002.86
2017-12-21T16:35:43.422Z,102000.14
2017-12-21T16:38:12.647Z,101996.09
2017-12-21T16:40:41.870Z,102001.64
2017-12-21T16:43:11.853Z,102000.15
2017-12-21T16:45:41.091Z,102002.59
2017-12-21T16:48:11.071Z,101999.48
2017-12-21T16:50:40.335Z,102001.66
2017-12-21T16:53:09.556Z,102005.86
2017-12-21T16:55:38.855Z,102011.95
2017-12-21T16:58:08.072Z,102014.55
2017-12-21T17:00:37.282Z,102013.45
2017-12-21T17:03:06.478Z,102008.70
2017-12-21T17:05:36.616Z,102011.95
2017-12-21T17:08:05.835Z,102020.91
2017-12-21T17:10:35.077Z,102024.03
2017-12-21T17:13:04.296Z,102025.82
2017-12-21T17:15:33.556Z,102030.00
2017-12-21T17:18:02.798Z,102031.78
2017-12-21T17:20:32.796Z,102030.27
2017-12-21T17:23:02.035Z,102023.34
2017-12-21T17:25:31.255Z,102022.27
2017-12-21T17:28:00.501Z,102021.86
2017-12-21T17:30:30.512Z,102021.73
2017-12-21T17:32:59.763Z,102020.50
2017-12-21T17:35:28.983Z,102025.38
2017-12-21T17:37:58.207Z,102019.84
2017-12-21T17:40:29.117Z,102021.33
2017-12-21T17:42:58.354Z,102015.09
2017-12-21T17:45:28.335Z,102012.49
2017-12-21T17:47:58.014Z,102002.88
2017-12-21T17:50:27.240Z,102005.45
2017-12-21T17:52:56.506Z,101994.98
2017-12-21T17:55:25.710Z,101994.44
2017-12-21T17:57:55.700Z,102000.70
2017-12-21T18:00:24.979Z,102002.17
2017-12-21T18:02:54.188Z,102008.02
2017-12-21T18:05:24.224Z,102005.70
2017-12-21T18:07:53.475Z,102005.57
2017-12-21T18:10:22.840Z,102010.05
2017-12-21T18:12:52.135Z,102007.48
2017-12-21T18:15:21.428Z,102010.59
2017-12-21T18:17:50.661Z,102014.27
2017-12-21T18:20:19.953Z,102022.97
2017-12-21T18:22:49.244Z,102022.56
2017-12-21T18:25:18.552Z,102016.56
2017-12-21T18:27:47.835Z,102019.69
2017-12-21T18:30:17.176Z,102022.27
2017-12-21T18:32:47.218Z,102021.46
2017-12-21T18:35:17.304Z,102025.24
2017-12-21T18:37:46.571Z,102027.95
2017-12-21T18:40:15.927Z,102029.88
2017-12-21T18:42:45.256Z,102030.82
2017-12-21T18:45:14.574Z,102027.98
2017-12-21T18:47:43.972Z,102028.93
2017-12-21T18:50:13.396Z,102024.84
2017-12-21T18:52:42.978Z,102029.33
2017-12-21T18:55:12.378Z,102033.95
2017-12-21T18:57:41.905Z,102044.95
2017-12-21T19:00:11.437Z,102040.88
2017-12-21T19:02:41.815Z,102044.67
2017-12-21T19:05:11.260Z,102047.25
2017-12-21T19:07:41.475Z,102051.33
2017-12-21T19:10:10.811Z,102051.88
2017-12-21T19:12:41.038Z,102056.07
2017-12-21T19:15:10.588Z,102059.48
2017-12-21T19:17:40.032Z,102061.65
2017-12-21T19:20:10.292Z,102051.73
2017-12-21T19:22:40.474Z,102058.80
2017-12-21T19:25:10.741Z,102050.50
2017-12-21T19:27:40.286Z,102052.19
2017-12-21T19:30:09.766Z,102055.70
2017-12-21T19:32:39.313Z,102056.25
2017-12-21T19:35:09.777Z,102061.41
2017-12-21T19:37:40.256Z,102057.21
2017-12-21T19:40:10.697Z,102062.49
2017-12-21T19:42:40.399Z,102065.74
2017-12-21T19:45:09.961Z,102073.51
2017-12-21T19:47:40.231Z,102065.61
2017-12-21T19:50:10.480Z,102066.17
2017-12-21T19:52:39.970Z,102062.65
2017-12-21T19:55:09.679Z,102061.15
2017-12-21T19:57:39.218Z,102054.62
2017-12-21T20:00:09.091Z,102046.75
2017-12-21T20:02:38.624Z,102049.75
2017-12-21T20:05:08.314Z,102043.20
2017-12-21T20:07:37.960Z,102039.54
2017-12-21T20:10:07.679Z,102035.34
2017-12-21T20:12:37.447Z,102033.04
2017-12-21T20:15:06.975Z,102030.59
2017-12-21T20:17:37.429Z,102033.86
2017-12-21T20:20:07.975Z,102041.00
2017-12-21T20:22:37.727Z,102037.06
2017-12-21T20:25:08.205Z,102037.06
2017-12-21T20:27:37.862Z,102030.69
2017-12-21T20:30:08.039Z,102033.56
2017-12-21T20:32:37.626Z,102028.92
2017-12-21T20:35:07.110Z,102032.47
2017-12-21T20:37:37.589Z,102032.44
2017-12-21T20:40:07.291Z,102023.35
2017-12-21T20:42:37.107Z,102032.32
2017-12-21T20:45:07.515Z,102023.20
2017-12-21T20:47:37.301Z,102023.19
2017-12-21T20:50:07.613Z,102032.14
2017-12-21T20:52:38.031Z,102028.06
2017-12-21T20:55:07.611Z,102029.31
2017-12-21T20:57:37.335Z,102031.20
2017-12-21T21:00:06.895Z,102025.52
2017-12-21T21:02:36.563Z,102024.30
2017-12-21T21:05:06.197Z,102028.37
2017-12-21T21:07:35.864Z,102027.41
2017-12-21T21:10:05.350Z,102032.31
2017-12-21T21:12:34.823Z,102033.92
2017-12-21T21:15:04.332Z,102035.29
2017-12-21T21:17:33.994Z,102038.27
2017-12-21T21:20:03.461Z,102040.58
2017-12-21T21:22:33.914Z,102034.74
2017-12-21T21:25:03.472Z,102042.61
2017-12-21T21:27:33.782Z,102048.61
2017-12-21T21:30:03.251Z,102048.04
2017-12-21T21:32:32.806Z,102041.41
2017-12-21T21:35:03.094Z,102035.84
2017-12-21T21:37:32.537Z,102040.57
2017-12-21T21:40:01.903Z,102043.30
2017-12-21T21:42:31.227Z,102043.30
2017-12-21T21:45:00.555Z,102046.14
2017-12-21T21:47:30.615Z,102051.97
2017-12-21T21:49:59.899Z,102051.05
2017-12-21T21:52:29.120Z,102056.47
2017-12-21T21:54:58.324Z,102056.06
2017-12-21T21:57:27.561Z,102054.03
2017-12-21T21:59:57.547Z,102054.84
2017-12-21T22:02:26.744Z,102053.22
2017-12-21T22:04:55.982Z,102057.42
2017-12-21T22:07:25.202Z,102060.27
2017-12-21T22:09:54.436Z,102054.69
2017-12-21T22:12:23.648Z,102052.52
2017-12-21T22:14:52.853Z,102053.87
2017-12-21T22:17:22.120Z,102054.55
2017-12-21T22:19:51.330Z,102053.63
2017-12-21T22:22:20.560Z,102049.02
2017-12-21T22:24:50.515Z,102045.33
2017-12-21T22:27:19.739Z,102053.61
2017-12-21T22:29:49.012Z,102050.77
2017-12-21T22:32:18.223Z,102047.11
2017-12-21T22:34:47.436Z,102043.83
2017-12-21T22:37:16.601Z,102045.98
2017-12-21T22:39:45.852Z,102045.04
2017-12-21T22:42:15.827Z,102048.14
2017-12-21T22:44:45.124Z,102050.83
2017-12-21T22:47:14.316Z,102048.13
2017-12-21T22:49:43.587Z,102043.08
2017-12-21T22:52:12.951Z,102041.59
2017-12-21T22:54:43.255Z,102043.47
2017-12-21T22:57:14.555Z,102035.04
2017-12-21T22:59:47.562Z,102033.79
2017-12-21T23:02:17.552Z,102029.05
2017-12-21T23:04:47.614Z,102024.98
2017-12-21T23:07:16.922Z,102027.83
2017-12-21T23:09:46.152Z,102020.80
2017-12-21T23:12:16.144Z,102028.80
2017-12-21T23:14:45.488Z,102024.87
2017-12-21T23:17:14.731Z,102026.63
2017-12-21T23:19:43.972Z,102028.23
2017-12-21T23:22:13.328Z,102020.77
2017-12-21T23:24:42.604Z,102022.16
2017-12-21T23:27:11.913Z,102016.06
2017-12-21T23:29:41.147Z,102019.45
2017-12-21T23:32:10.374Z,102006.70
2017-12-21T23:34:39.599Z,101999.52
2017-12-21T23:37:08.830Z,101992.06
2017-12-21T23:39:38.048Z,101996.27
2017-12-21T23:42:07.253Z,101994.50
2017-12-21T23:44:37.448Z,101987.72
2017-12-21T23:47:07.488Z,101990.13
2017-12-21T23:49:36.663Z,101982.44
2017-12-21T23:52:05.867Z,101992.17
2017-12-21T23:54:35.091Z,101986.34
2017-12-21T23:57:05.163Z,101986.61
2017-12-21T23:59:34.366Z,101989.73
